sensor_id;sensor_type;location;lat;lon;timestamp;temperature;humidity
29539;DHT22;16482;51.046;4.498;2023-05-10T00:00:44;24.20;48.30
29539;DHT22;16482;51.046;4.498;2023-05-10T00:03:10;24.30;48.30
29539;DHT22;16482;51.046;4.498;2023-05-10T00:05:38;24.20;48.20
29539;DHT22;16482;51.046;4.498;2023-05-10T00:08:10;24.30;48.30
29539;DHT22;16482;51.046;4.498;2023-05-10T00:10:39;24.20;48.10
29539;DHT22;16482;51.046;4.498;2023-05-10T00:13:10;24.30;48.20
29539;DHT22;16482;51.046;4.498;2023-05-10T00:15:39;24.30;48.20
29539;DHT22;16482;51.046;4.498;2023-05-10T00:18:07;24.30;48.10
29539;DHT22;16482;51.046;4.498;2023-05-10T00:20:41;24.30;48.10
29539;DHT22;16482;51.046;4.498;2023-05-10T00:23:14;24.30;48.10
29539;DHT22;16482;51.046;4.498;2023-05-10T00:25:40;24.30;48.10
29539;DHT22;16482;51.046;4.498;2023-05-10T00:28:09;24.20;48.00
29539;DHT22;16482;51.046;4.498;2023-05-10T00:30:44;24.30;48.00
29539;DHT22;16482;51.046;4.498;2023-05-10T00:33:10;24.30;48.00
29539;DHT22;16482;51.046;4.498;2023-05-10T00:35:39;24.20;47.90
29539;DHT22;16482;51.046;4.498;2023-05-10T00:38:10;24.20;47.90
29539;DHT22;16482;51.046;4.498;2023-05-10T00:40:38;24.20;47.80
29539;DHT22;16482;51.046;4.498;2023-05-10T00:43:12;24.20;47.80
29539;DHT22;16482;51.046;4.498;2023-05-10T00:45:40;24.20;47.80
29539;DHT22;16482;51.046;4.498;2023-05-10T00:48:13;24.20;47.80
29539;DHT22;16482;51.046;4.498;2023-05-10T00:50:39;24.20;47.70
29539;DHT22;16482;51.046;4.498;2023-05-10T00:53:13;24.20;47.80
29539;DHT22;16482;51.046;4.498;2023-05-10T00:55:42;24.20;47.70
29539;DHT22;16482;51.046;4.498;2023-05-10T00:58:08;24.20;47.70
29539;DHT22;16482;51.046;4.498;2023-05-10T01:00:42;24.20;47.70
29539;DHT22;16482;51.046;4.498;2023-05-10T01:03:11;24.20;47.60
29539;DHT22;16482;51.046;4.498;2023-05-10T01:05:42;24.20;47.70
29539;DHT22;16482;51.046;4.498;2023-05-10T01:08:11;24.20;47.70
29539;DHT22;16482;51.046;4.498;2023-05-10T01:10:46;24.20;47.70
29539;DHT22;16482;51.046;4.498;2023-05-10T01:13:23;24.20;47.70
29539;DHT22;16482;51.046;4.498;2023-05-10T01:15:52;24.20;47.60
29539;DHT22;16482;51.046;4.498;2023-05-10T01:18:20;24.20;47.70
29539;DHT22;16482;51.046;4.498;2023-05-10T01:20:49;24.20;47.60
29539;DHT22;16482;51.046;4.498;2023-05-10T01:23:35;24.10;47.50
29539;DHT22;16482;51.046;4.498;2023-05-10T01:26:24;24.20;47.50
29539;DHT22;16482;51.046;4.498;2023-05-10T01:37:28;24.10;47.50
29539;DHT22;16482;51.046;4.498;2023-05-10T01:40:13;24.10;47.60
29539;DHT22;16482;51.046;4.498;2023-05-10T01:42:51;24.10;47.60
29539;DHT22;16482;51.046;4.498;2023-05-10T01:45:26;24.10;47.50
29539;DHT22;16482;51.046;4.498;2023-05-10T01:47:57;24.10;47.50
29539;DHT22;16482;51.046;4.498;2023-05-10T01:50:27;24.10;47.50
29539;DHT22;16482;51.046;4.498;2023-05-10T01:52:56;24.00;48.20
29539;DHT22;16482;51.046;4.498;2023-05-10T01:55:25;24.10;47.60
29539;DHT22;16482;51.046;4.498;2023-05-10T01:58:05;24.10;47.50
29539;DHT22;16482;51.046;4.498;2023-05-10T02:00:44;24.10;47.50
29539;DHT22;16482;51.046;4.498;2023-05-10T02:03:12;24.10;47.50
29539;DHT22;16482;51.046;4.498;2023-05-10T02:05:40;24.10;47.50
29539;DHT22;16482;51.046;4.498;2023-05-10T02:08:10;24.10;47.50
29539;DHT22;16482;51.046;4.498;2023-05-10T02:10:39;24.10;47.50
29539;DHT22;16482;51.046;4.498;2023-05-10T02:13:09;24.10;47.50
29539;DHT22;16482;51.046;4.498;2023-05-10T02:15:43;24.10;47.50
29539;DHT22;16482;51.046;4.498;2023-05-10T02:18:11;24.10;47.50
29539;DHT22;16482;51.046;4.498;2023-05-10T02:20:41;24.10;47.50
29539;DHT22;16482;51.046;4.498;2023-05-10T02:23:11;24.10;47.40
29539;DHT22;16482;51.046;4.498;2023-05-10T02:25:41;24.10;47.40
29539;DHT22;16482;51.046;4.498;2023-05-10T02:28:12;24.10;47.40
29539;DHT22;16482;51.046;4.498;2023-05-10T02:30:41;24.10;47.40
29539;DHT22;16482;51.046;4.498;2023-05-10T02:33:11;24.10;47.50
29539;DHT22;16482;51.046;4.498;2023-05-10T02:35:46;24.10;47.40
29539;DHT22;16482;51.046;4.498;2023-05-10T02:38:14;24.00;47.30
29539;DHT22;16482;51.046;4.498;2023-05-10T02:40:41;24.00;47.40
29539;DHT22;16482;51.046;4.498;2023-05-10T02:43:13;24.00;47.30
29539;DHT22;16482;51.046;4.498;2023-05-10T02:45:43;24.10;47.30
29539;DHT22;16482;51.046;4.498;2023-05-10T02:48:12;24.10;47.30
29539;DHT22;16482;51.046;4.498;2023-05-10T02:50:45;24.10;47.40
29539;DHT22;16482;51.046;4.498;2023-05-10T02:53:20;24.10;47.30
29539;DHT22;16482;51.046;4.498;2023-05-10T02:55:52;24.10;47.30
29539;DHT22;16482;51.046;4.498;2023-05-10T02:58:20;24.10;47.30
29539;DHT22;16482;51.046;4.498;2023-05-10T03:00:47;24.00;47.30
29539;DHT22;16482;51.046;4.498;2023-05-10T03:03:13;24.10;47.30
29539;DHT22;16482;51.046;4.498;2023-05-10T03:05:38;24.00;47.20
29539;DHT22;16482;51.046;4.498;2023-05-10T03:08:10;24.10;47.30
29539;DHT22;16482;51.046;4.498;2023-05-10T03:10:50;24.00;47.20
29539;DHT22;16482;51.046;4.498;2023-05-10T03:13:32;24.10;47.20
29539;DHT22;16482;51.046;4.498;2023-05-10T03:16:16;24.10;47.20
29539;DHT22;16482;51.046;4.498;2023-05-10T03:19:22;24.00;47.20
29539;DHT22;16482;51.046;4.498;2023-05-10T03:21:52;24.00;47.10
29539;DHT22;16482;51.046;4.498;2023-05-10T03:24:21;24.00;47.20
29539;DHT22;16482;51.046;4.498;2023-05-10T03:26:49;24.00;47.20
29539;DHT22;16482;51.046;4.498;2023-05-10T03:29:16;24.00;47.20
29539;DHT22;16482;51.046;4.498;2023-05-10T03:31:42;24.00;47.20
29539;DHT22;16482;51.046;4.498;2023-05-10T03:34:08;24.00;47.20
29539;DHT22;16482;51.046;4.498;2023-05-10T03:36:34;24.00;47.20
29539;DHT22;16482;51.046;4.498;2023-05-10T03:39:00;24.00;47.80
29539;DHT22;16482;51.046;4.498;2023-05-10T03:41:29;24.00;47.20
29539;DHT22;16482;51.046;4.498;2023-05-10T03:44:01;24.00;47.10
29539;DHT22;16482;51.046;4.498;2023-05-10T03:46:29;24.00;47.10
29539;DHT22;16482;51.046;4.498;2023-05-10T03:49:04;24.00;47.10
29539;DHT22;16482;51.046;4.498;2023-05-10T03:51:30;24.00;47.10
29539;DHT22;16482;51.046;4.498;2023-05-10T03:54:01;24.00;47.10
29539;DHT22;16482;51.046;4.498;2023-05-10T03:56:27;24.00;47.00
29539;DHT22;16482;51.046;4.498;2023-05-10T03:59:11;24.00;47.10
29539;DHT22;16482;51.046;4.498;2023-05-10T04:01:36;24.00;47.00
29539;DHT22;16482;51.046;4.498;2023-05-10T04:04:02;24.00;47.10
29539;DHT22;16482;51.046;4.498;2023-05-10T04:06:31;24.00;47.00
29539;DHT22;16482;51.046;4.498;2023-05-10T04:09:06;24.00;47.10
29539;DHT22;16482;51.046;4.498;2023-05-10T04:11:32;24.00;47.00
29539;DHT22;16482;51.046;4.498;2023-05-10T04:14:05;24.00;47.00
29539;DHT22;16482;51.046;4.498;2023-05-10T04:16:31;24.00;47.00
29539;DHT22;16482;51.046;4.498;2023-05-10T04:19:00;24.00;47.00
29539;DHT22;16482;51.046;4.498;2023-05-10T04:21:33;24.00;46.90
29539;DHT22;16482;51.046;4.498;2023-05-10T04:23:59;24.00;46.90
29539;DHT22;16482;51.046;4.498;2023-05-10T04:26:33;24.00;47.00
29539;DHT22;16482;51.046;4.498;2023-05-10T04:29:01;24.00;46.90
29539;DHT22;16482;51.046;4.498;2023-05-10T04:31:28;24.00;46.90
29539;DHT22;16482;51.046;4.498;2023-05-10T04:34:01;24.00;46.90
29539;DHT22;16482;51.046;4.498;2023-05-10T04:36:29;24.00;46.80
29539;DHT22;16482;51.046;4.498;2023-05-10T04:39:01;24.00;46.90
29539;DHT22;16482;51.046;4.498;2023-05-10T04:41:31;24.00;46.80
29539;DHT22;16482;51.046;4.498;2023-05-10T04:44:00;24.00;46.80
29539;DHT22;16482;51.046;4.498;2023-05-10T04:46:31;24.00;46.80
29539;DHT22;16482;51.046;4.498;2023-05-10T04:49:00;24.00;46.80
29539;DHT22;16482;51.046;4.498;2023-05-10T04:51:35;24.00;46.80
29539;DHT22;16482;51.046;4.498;2023-05-10T04:54:01;24.00;46.70
29539;DHT22;16482;51.046;4.498;2023-05-10T04:56:30;24.00;46.80
29539;DHT22;16482;51.046;4.498;2023-05-10T04:58:59;24.00;46.70
29539;DHT22;16482;51.046;4.498;2023-05-10T05:01:32;24.00;47.40
29539;DHT22;16482;51.046;4.498;2023-05-10T05:04:01;24.00;46.70
29539;DHT22;16482;51.046;4.498;2023-05-10T05:06:30;24.00;46.70
29539;DHT22;16482;51.046;4.498;2023-05-10T05:09:03;24.00;46.80
29539;DHT22;16482;51.046;4.498;2023-05-10T05:11:32;23.90;46.80
29539;DHT22;16482;51.046;4.498;2023-05-10T05:14:00;23.90;46.80
29539;DHT22;16482;51.046;4.498;2023-05-10T05:16:34;23.90;46.90
29539;DHT22;16482;51.046;4.498;2023-05-10T05:19:02;23.90;46.90
29539;DHT22;16482;51.046;4.498;2023-05-10T05:21:31;23.90;47.60
29539;DHT22;16482;51.046;4.498;2023-05-10T05:24:00;24.00;47.00
29539;DHT22;16482;51.046;4.498;2023-05-10T05:26:35;24.00;47.10
29539;DHT22;16482;51.046;4.498;2023-05-10T05:29:01;24.00;47.10
29539;DHT22;16482;51.046;4.498;2023-05-10T05:31:34;24.00;47.10
29539;DHT22;16482;51.046;4.498;2023-05-10T05:34:00;24.00;47.00
29539;DHT22;16482;51.046;4.498;2023-05-10T05:36:36;24.00;47.00
29539;DHT22;16482;51.046;4.498;2023-05-10T05:39:03;24.10;46.90
29539;DHT22;16482;51.046;4.498;2023-05-10T05:41:32;24.00;46.90
29539;DHT22;16482;51.046;4.498;2023-05-10T05:44:01;24.10;46.90
29539;DHT22;16482;51.046;4.498;2023-05-10T05:46:32;24.10;46.90
29539;DHT22;16482;51.046;4.498;2023-05-10T05:49:00;24.10;46.80
29539;DHT22;16482;51.046;4.498;2023-05-10T05:51:30;24.20;46.80
29539;DHT22;16482;51.046;4.498;2023-05-10T05:54:05;24.10;46.70
29539;DHT22;16482;51.046;4.498;2023-05-10T05:56:31;24.20;46.70
29539;DHT22;16482;51.046;4.498;2023-05-10T05:59:00;24.20;47.30
29539;DHT22;16482;51.046;4.498;2023-05-10T06:01:33;24.20;46.70
29539;DHT22;16482;51.046;4.498;2023-05-10T06:04:02;24.20;46.60
29539;DHT22;16482;51.046;4.498;2023-05-10T06:06:35;24.20;46.60
29539;DHT22;16482;51.046;4.498;2023-05-10T06:09:04;24.20;46.50
29539;DHT22;16482;51.046;4.498;2023-05-10T06:11:32;24.20;46.50
29539;DHT22;16482;51.046;4.498;2023-05-10T06:14:01;24.20;46.50
29539;DHT22;16482;51.046;4.498;2023-05-10T06:16:36;24.30;46.40
29539;DHT22;16482;51.046;4.498;2023-05-10T06:19:02;24.30;46.40
29539;DHT22;16482;51.046;4.498;2023-05-10T06:21:31;24.30;46.40
29539;DHT22;16482;51.046;4.498;2023-05-10T06:24:06;24.30;46.30
29539;DHT22;16482;51.046;4.498;2023-05-10T06:26:32;24.40;46.30
29539;DHT22;16482;51.046;4.498;2023-05-10T06:29:01;24.30;46.30
29539;DHT22;16482;51.046;4.498;2023-05-10T06:31:30;24.30;46.30
29539;DHT22;16482;51.046;4.498;2023-05-10T06:34:04;24.30;46.20
29539;DHT22;16482;51.046;4.498;2023-05-10T06:36:32;24.30;46.20
29539;DHT22;16482;51.046;4.498;2023-05-10T06:39:01;24.40;46.20
29539;DHT22;16482;51.046;4.498;2023-05-10T06:41:30;24.40;46.10
29539;DHT22;16482;51.046;4.498;2023-05-10T06:44:03;24.40;46.20
29539;DHT22;16482;51.046;4.498;2023-05-10T06:46:32;24.40;46.10
29539;DHT22;16482;51.046;4.498;2023-05-10T06:49:01;24.40;46.10
29539;DHT22;16482;51.046;4.498;2023-05-10T06:51:34;24.30;46.50
29539;DHT22;16482;51.046;4.498;2023-05-10T06:54:00;24.40;46.50
29539;DHT22;16482;51.046;4.498;2023-05-10T06:56:34;24.30;46.50
29539;DHT22;16482;51.046;4.498;2023-05-10T06:59:02;24.40;46.50
29539;DHT22;16482;51.046;4.498;2023-05-10T07:01:30;24.40;47.70
29539;DHT22;16482;51.046;4.498;2023-05-10T07:04:05;24.40;50.40
29539;DHT22;16482;51.046;4.498;2023-05-10T07:06:33;24.40;50.00
29539;DHT22;16482;51.046;4.498;2023-05-10T07:08:59;24.40;48.60
29539;DHT22;16482;51.046;4.498;2023-05-10T07:11:33;24.40;48.40
29539;DHT22;16482;51.046;4.498;2023-05-10T07:14:01;24.50;48.60
29539;DHT22;16482;51.046;4.498;2023-05-10T07:16:30;24.50;49.10
29539;DHT22;16482;51.046;4.498;2023-05-10T07:19:05;24.50;48.70
29539;DHT22;16482;51.046;4.498;2023-05-10T07:21:31;24.50;48.60
29539;DHT22;16482;51.046;4.498;2023-05-10T07:24:00;24.50;48.60
29539;DHT22;16482;51.046;4.498;2023-05-10T07:26:35;24.50;48.70
29539;DHT22;16482;51.046;4.498;2023-05-10T07:29:01;24.50;48.80
29539;DHT22;16482;51.046;4.498;2023-05-10T07:31:30;24.50;48.70
29539;DHT22;16482;51.046;4.498;2023-05-10T07:34:05;24.50;48.80
29539;DHT22;16482;51.046;4.498;2023-05-10T07:36:31;24.50;48.70
29539;DHT22;16482;51.046;4.498;2023-05-10T07:39:06;24.50;48.80
29539;DHT22;16482;51.046;4.498;2023-05-10T07:41:32;24.50;48.70
29539;DHT22;16482;51.046;4.498;2023-05-10T07:44:01;24.40;48.70
29539;DHT22;16482;51.046;4.498;2023-05-10T07:46:30;24.40;48.70
29539;DHT22;16482;51.046;4.498;2023-05-10T07:49:01;24.50;48.50
29539;DHT22;16482;51.046;4.498;2023-05-10T07:51:30;24.50;48.40
29539;DHT22;16482;51.046;4.498;2023-05-10T07:54:05;24.40;48.30
29539;DHT22;16482;51.046;4.498;2023-05-10T07:56:31;24.50;48.30
29539;DHT22;16482;51.046;4.498;2023-05-10T07:59:02;24.50;48.10
29539;DHT22;16482;51.046;4.498;2023-05-10T08:01:34;24.50;48.20
29539;DHT22;16482;51.046;4.498;2023-05-10T08:04:02;24.50;48.40
29539;DHT22;16482;51.046;4.498;2023-05-10T08:06:33;24.60;48.30
29539;DHT22;16482;51.046;4.498;2023-05-10T08:09:01;24.60;48.10
29539;DHT22;16482;51.046;4.498;2023-05-10T08:11:30;24.60;48.10
29539;DHT22;16482;51.046;4.498;2023-05-10T08:14:03;24.60;48.00
29539;DHT22;16482;51.046;4.498;2023-05-10T08:16:31;24.60;48.20
29539;DHT22;16482;51.046;4.498;2023-05-10T08:19:05;24.70;48.10
29539;DHT22;16482;51.046;4.498;2023-05-10T08:21:31;24.70;47.80
29539;DHT22;16482;51.046;4.498;2023-05-10T08:24:06;24.70;47.90
29539;DHT22;16482;51.046;4.498;2023-05-10T08:26:33;24.80;48.40
29539;DHT22;16482;51.046;4.498;2023-05-10T08:29:02;24.70;48.30
29539;DHT22;16482;51.046;4.498;2023-05-10T08:31:30;24.70;48.50
29539;DHT22;16482;51.046;4.498;2023-05-10T08:34:05;24.70;48.80
29539;DHT22;16482;51.046;4.498;2023-05-10T08:36:31;24.70;48.60
29539;DHT22;16482;51.046;4.498;2023-05-10T08:39:06;24.70;48.40
29539;DHT22;16482;51.046;4.498;2023-05-10T08:41:33;24.80;48.50
29539;DHT22;16482;51.046;4.498;2023-05-10T08:44:03;24.80;48.30
29539;DHT22;16482;51.046;4.498;2023-05-10T08:46:33;24.70;48.40
29539;DHT22;16482;51.046;4.498;2023-05-10T08:49:04;24.80;48.10
29539;DHT22;16482;51.046;4.498;2023-05-10T08:51:35;24.80;48.10
29539;DHT22;16482;51.046;4.498;2023-05-10T08:54:03;24.80;48.20
29539;DHT22;16482;51.046;4.498;2023-05-10T08:56:32;24.70;48.20
29539;DHT22;16482;51.046;4.498;2023-05-10T08:59:01;24.80;48.20
29539;DHT22;16482;51.046;4.498;2023-05-10T09:01:36;24.80;48.30
29539;DHT22;16482;51.046;4.498;2023-05-10T09:04:03;24.70;48.20
29539;DHT22;16482;51.046;4.498;2023-05-10T09:06:29;24.70;48.40
29539;DHT22;16482;51.046;4.498;2023-05-10T09:09:03;24.70;48.20
29539;DHT22;16482;51.046;4.498;2023-05-10T09:11:32;24.80;48.20
29539;DHT22;16482;51.046;4.498;2023-05-10T09:14:01;24.70;48.00
29539;DHT22;16482;51.046;4.498;2023-05-10T09:16:30;24.70;48.00
29539;DHT22;16482;51.046;4.498;2023-05-10T09:19:03;24.80;48.00
29539;DHT22;16482;51.046;4.498;2023-05-10T09:21:32;24.80;47.90
29539;DHT22;16482;51.046;4.498;2023-05-10T09:24:03;24.80;48.20
29539;DHT22;16482;51.046;4.498;2023-05-10T09:26:30;24.80;48.10
29539;DHT22;16482;51.046;4.498;2023-05-10T09:29:04;24.70;48.20
29539;DHT22;16482;51.046;4.498;2023-05-10T09:31:48;24.80;48.20
29539;DHT22;16482;51.046;4.498;2023-05-10T09:34:22;24.80;48.10
29539;DHT22;16482;51.046;4.498;2023-05-10T09:36:55;24.80;48.20
29539;DHT22;16482;51.046;4.498;2023-05-10T09:39:30;24.80;48.30
29539;DHT22;16482;51.046;4.498;2023-05-10T09:41:58;24.80;48.50
29539;DHT22;16482;51.046;4.498;2023-05-10T09:44:25;24.80;48.50
29539;DHT22;16482;51.046;4.498;2023-05-10T09:46:51;24.80;48.50
29539;DHT22;16482;51.046;4.498;2023-05-10T09:49:19;24.80;48.40
29539;DHT22;16482;51.046;4.498;2023-05-10T09:51:45;24.80;48.50
29539;DHT22;16482;51.046;4.498;2023-05-10T09:54:16;24.80;48.70
29539;DHT22;16482;51.046;4.498;2023-05-10T09:56:42;24.80;48.50
29539;DHT22;16482;51.046;4.498;2023-05-10T09:59:11;24.80;48.40
29539;DHT22;16482;51.046;4.498;2023-05-10T10:01:38;24.80;48.40
29539;DHT22;16482;51.046;4.498;2023-05-10T10:04:05;24.80;48.40
29539;DHT22;16482;51.046;4.498;2023-05-10T10:06:39;24.80;48.40
29539;DHT22;16482;51.046;4.498;2023-05-10T10:09:06;24.80;48.30
29539;DHT22;16482;51.046;4.498;2023-05-10T10:11:35;24.70;48.30
29539;DHT22;16482;51.046;4.498;2023-05-10T10:14:02;24.70;48.20
29539;DHT22;16482;51.046;4.498;2023-05-10T10:16:31;24.70;48.20
29539;DHT22;16482;51.046;4.498;2023-05-10T10:19:06;24.70;48.10
29539;DHT22;16482;51.046;4.498;2023-05-10T10:21:32;24.70;48.00
29539;DHT22;16482;51.046;4.498;2023-05-10T10:24:01;24.70;48.00
29539;DHT22;16482;51.046;4.498;2023-05-10T10:26:30;24.70;47.90
29539;DHT22;16482;51.046;4.498;2023-05-10T10:29:26;24.70;47.90
29539;DHT22;16482;51.046;4.498;2023-05-10T10:32:09;24.70;47.80
29539;DHT22;16482;51.046;4.498;2023-05-10T10:34:39;24.70;47.80
29539;DHT22;16482;51.046;4.498;2023-05-10T10:37:05;24.70;47.80
29539;DHT22;16482;51.046;4.498;2023-05-10T10:39:32;24.70;47.80
29539;DHT22;16482;51.046;4.498;2023-05-10T10:41:58;24.70;47.80
29539;DHT22;16482;51.046;4.498;2023-05-10T10:44:26;24.70;47.80
29539;DHT22;16482;51.046;4.498;2023-05-10T10:52:36;24.70;47.70
29539;DHT22;16482;51.046;4.498;2023-05-10T10:55:12;24.70;47.60
29539;DHT22;16482;51.046;4.498;2023-05-10T11:03:12;24.60;47.40
29539;DHT22;16482;51.046;4.498;2023-05-10T11:05:47;24.60;47.30
29539;DHT22;16482;51.046;4.498;2023-05-10T11:08:17;24.60;47.40
29539;DHT22;16482;51.046;4.498;2023-05-10T11:13:43;24.60;47.40
29539;DHT22;16482;51.046;4.498;2023-05-10T11:16:11;24.60;47.50
29539;DHT22;16482;51.046;4.498;2023-05-10T11:18:37;24.60;47.50
29539;DHT22;16482;51.046;4.498;2023-05-10T11:21:03;24.60;47.40
29539;DHT22;16482;51.046;4.498;2023-05-10T11:26:13;24.70;47.40
29539;DHT22;16482;51.046;4.498;2023-05-10T11:28:43;24.70;47.50
29539;DHT22;16482;51.046;4.498;2023-05-10T11:31:10;24.70;47.50
29539;DHT22;16482;51.046;4.498;2023-05-10T11:33:52;24.60;47.50
29539;DHT22;16482;51.046;4.498;2023-05-10T11:36:40;24.70;47.50
29539;DHT22;16482;51.046;4.498;2023-05-10T11:39:05;24.60;47.40
29539;DHT22;16482;51.046;4.498;2023-05-10T11:41:34;24.60;48.00
29539;DHT22;16482;51.046;4.498;2023-05-10T11:44:04;24.70;47.40
29539;DHT22;16482;51.046;4.498;2023-05-10T11:46:32;24.70;47.30
29539;DHT22;16482;51.046;4.498;2023-05-10T11:49:07;24.70;47.30
29539;DHT22;16482;51.046;4.498;2023-05-10T11:51:34;24.70;47.30
29539;DHT22;16482;51.046;4.498;2023-05-10T11:54:10;24.70;47.30
29539;DHT22;16482;51.046;4.498;2023-05-10T11:56:39;24.70;47.10
29539;DHT22;16482;51.046;4.498;2023-05-10T11:59:06;24.70;47.10
29539;DHT22;16482;51.046;4.498;2023-05-10T12:01:33;24.70;47.00
29539;DHT22;16482;51.046;4.498;2023-05-10T12:04:02;24.70;47.00
29539;DHT22;16482;51.046;4.498;2023-05-10T12:06:32;24.70;46.90
29539;DHT22;16482;51.046;4.498;2023-05-10T12:09:06;24.70;46.90
29539;DHT22;16482;51.046;4.498;2023-05-10T12:11:37;24.70;46.90
29539;DHT22;16482;51.046;4.498;2023-05-10T12:14:04;24.70;46.90
29539;DHT22;16482;51.046;4.498;2023-05-10T12:16:33;24.70;46.90
29539;DHT22;16482;51.046;4.498;2023-05-10T12:19:02;24.70;46.90
29539;DHT22;16482;51.046;4.498;2023-05-10T12:21:37;24.70;46.80
29539;DHT22;16482;51.046;4.498;2023-05-10T12:24:04;24.70;46.60
29539;DHT22;16482;51.046;4.498;2023-05-10T12:26:35;24.70;46.70
29539;DHT22;16482;51.046;4.498;2023-05-10T12:32:09;24.70;46.60
29539;DHT22;16482;51.046;4.498;2023-05-10T12:34:35;24.70;46.60
29539;DHT22;16482;51.046;4.498;2023-05-10T12:37:03;24.70;46.70
29539;DHT22;16482;51.046;4.498;2023-05-10T12:39:43;24.70;46.60
29539;DHT22;16482;51.046;4.498;2023-05-10T12:42:10;24.70;47.10
29539;DHT22;16482;51.046;4.498;2023-05-10T12:44:36;24.70;46.60
29539;DHT22;16482;51.046;4.498;2023-05-10T12:47:02;24.70;46.60
29539;DHT22;16482;51.046;4.498;2023-05-10T12:49:28;24.70;46.60
29539;DHT22;16482;51.046;4.498;2023-05-10T12:51:54;24.70;46.50
29539;DHT22;16482;51.046;4.498;2023-05-10T12:54:19;24.70;46.50
29539;DHT22;16482;51.046;4.498;2023-05-10T12:56:45;24.70;46.50
29539;DHT22;16482;51.046;4.498;2023-05-10T12:59:11;24.70;46.40
29539;DHT22;16482;51.046;4.498;2023-05-10T13:01:37;24.70;46.50
29539;DHT22;16482;51.046;4.498;2023-05-10T13:04:03;24.70;46.40
29539;DHT22;16482;51.046;4.498;2023-05-10T13:06:38;24.70;46.40
29539;DHT22;16482;51.046;4.498;2023-05-10T13:09:04;24.70;46.30
29539;DHT22;16482;51.046;4.498;2023-05-10T13:11:39;24.70;46.30
29539;DHT22;16482;51.046;4.498;2023-05-10T13:14:05;24.80;46.30
29539;DHT22;16482;51.046;4.498;2023-05-10T13:16:34;24.70;46.30
29539;DHT22;16482;51.046;4.498;2023-05-10T13:19:07;24.70;46.20
29539;DHT22;16482;51.046;4.498;2023-05-10T13:21:33;24.80;46.20
29539;DHT22;16482;51.046;4.498;2023-05-10T13:24:07;24.70;46.20
29539;DHT22;16482;51.046;4.498;2023-05-10T13:26:33;24.80;46.10
29539;DHT22;16482;51.046;4.498;2023-05-10T13:29:08;24.80;46.20
29539;DHT22;16482;51.046;4.498;2023-05-10T13:31:34;24.80;46.10
29539;DHT22;16482;51.046;4.498;2023-05-10T13:34:07;24.80;46.20
29539;DHT22;16482;51.046;4.498;2023-05-10T13:36:36;24.80;46.00
29539;DHT22;16482;51.046;4.498;2023-05-10T13:39:04;24.80;46.10
29539;DHT22;16482;51.046;4.498;2023-05-10T13:41:38;24.80;46.00
29539;DHT22;16482;51.046;4.498;2023-05-10T13:44:04;24.80;46.10
29539;DHT22;16482;51.046;4.498;2023-05-10T13:46:35;24.80;46.10
29539;DHT22;16482;51.046;4.498;2023-05-10T13:49:09;24.80;46.10
29539;DHT22;16482;51.046;4.498;2023-05-10T13:51:35;24.80;46.10
29539;DHT22;16482;51.046;4.498;2023-05-10T13:54:03;24.80;46.40
29539;DHT22;16482;51.046;4.498;2023-05-10T13:56:38;24.80;46.10
29539;DHT22;16482;51.046;4.498;2023-05-10T13:59:04;24.80;46.10
29539;DHT22;16482;51.046;4.498;2023-05-10T14:01:35;24.80;46.10
29539;DHT22;16482;51.046;4.498;2023-05-10T14:04:04;24.80;46.00
29539;DHT22;16482;51.046;4.498;2023-05-10T14:06:39;24.80;46.10
29539;DHT22;16482;51.046;4.498;2023-05-10T14:09:05;24.80;46.00
29539;DHT22;16482;51.046;4.498;2023-05-10T14:11:33;24.80;46.10
29539;DHT22;16482;51.046;4.498;2023-05-10T14:14:07;24.90;46.10
29539;DHT22;16482;51.046;4.498;2023-05-10T14:16:36;24.90;46.00
29539;DHT22;16482;51.046;4.498;2023-05-10T14:19:02;24.90;46.10
29539;DHT22;16482;51.046;4.498;2023-05-10T14:21:35;24.90;46.10
29539;DHT22;16482;51.046;4.498;2023-05-10T14:24:04;24.90;46.00
29539;DHT22;16482;51.046;4.498;2023-05-10T14:26:33;24.80;45.90
29539;DHT22;16482;51.046;4.498;2023-05-10T14:29:02;24.90;46.10
29539;DHT22;16482;51.046;4.498;2023-05-10T14:31:33;24.80;46.00
29539;DHT22;16482;51.046;4.498;2023-05-10T14:34:07;24.90;46.10
29539;DHT22;16482;51.046;4.498;2023-05-10T14:36:33;24.80;45.90
29539;DHT22;16482;51.046;4.498;2023-05-10T14:39:02;24.90;46.10
29539;DHT22;16482;51.046;4.498;2023-05-10T14:41:35;24.90;45.90
29539;DHT22;16482;51.046;4.498;2023-05-10T14:44:04;24.90;46.00
29539;DHT22;16482;51.046;4.498;2023-05-10T14:46:32;24.90;46.00
29539;DHT22;16482;51.046;4.498;2023-05-10T14:49:04;24.90;46.00
29539;DHT22;16482;51.046;4.498;2023-05-10T14:51:37;24.90;46.00
29539;DHT22;16482;51.046;4.498;2023-05-10T14:54:06;24.90;46.00
29539;DHT22;16482;51.046;4.498;2023-05-10T14:56:34;24.90;46.10
29539;DHT22;16482;51.046;4.498;2023-05-10T14:59:07;24.90;46.00
29539;DHT22;16482;51.046;4.498;2023-05-10T15:01:36;24.90;45.90
29539;DHT22;16482;51.046;4.498;2023-05-10T15:04:06;24.90;46.00
29539;DHT22;16482;51.046;4.498;2023-05-10T15:06:34;24.80;46.10
29539;DHT22;16482;51.046;4.498;2023-05-10T15:09:03;24.90;46.20
29539;DHT22;16482;51.046;4.498;2023-05-10T15:11:32;24.90;46.20
29539;DHT22;16482;51.046;4.498;2023-05-10T15:14:03;24.80;46.10
29539;DHT22;16482;51.046;4.498;2023-05-10T15:16:38;24.80;46.10
29539;DHT22;16482;51.046;4.498;2023-05-10T15:19:04;24.80;46.10
29539;DHT22;16482;51.046;4.498;2023-05-10T15:21:39;24.80;46.20
29539;DHT22;16482;51.046;4.498;2023-05-10T15:24:08;24.80;46.20
29539;DHT22;16482;51.046;4.498;2023-05-10T15:26:34;24.80;46.20
29539;DHT22;16482;51.046;4.498;2023-05-10T15:29:07;24.80;46.00
29539;DHT22;16482;51.046;4.498;2023-05-10T15:31:37;24.80;46.00
29539;DHT22;16482;51.046;4.498;2023-05-10T15:34:04;24.80;46.10
29539;DHT22;16482;51.046;4.498;2023-05-10T15:36:34;24.80;46.10
29539;DHT22;16482;51.046;4.498;2023-05-10T15:39:07;24.80;46.10
29539;DHT22;16482;51.046;4.498;2023-05-10T15:41:35;24.80;46.10
29539;DHT22;16482;51.046;4.498;2023-05-10T15:44:03;24.80;46.10
29539;DHT22;16482;51.046;4.498;2023-05-10T15:46:32;24.80;46.20
29539;DHT22;16482;51.046;4.498;2023-05-10T15:49:07;24.80;46.20
29539;DHT22;16482;51.046;4.498;2023-05-10T15:51:36;24.80;46.10
29539;DHT22;16482;51.046;4.498;2023-05-10T15:54:04;24.80;45.90
29539;DHT22;16482;51.046;4.498;2023-05-10T15:56:34;24.80;46.10
29539;DHT22;16482;51.046;4.498;2023-05-10T15:59:06;24.80;46.10
29539;DHT22;16482;51.046;4.498;2023-05-10T16:01:36;24.70;46.20
29539;DHT22;16482;51.046;4.498;2023-05-10T16:04:04;24.70;46.30
29539;DHT22;16482;51.046;4.498;2023-05-10T16:06:35;24.70;46.40
29539;DHT22;16482;51.046;4.498;2023-05-10T16:09:03;24.70;46.40
29539;DHT22;16482;51.046;4.498;2023-05-10T16:11:37;24.70;46.40
29539;DHT22;16482;51.046;4.498;2023-05-10T16:14:03;24.70;46.40
29539;DHT22;16482;51.046;4.498;2023-05-10T16:16:38;24.70;46.40